AMX659 MMGL-KLAX
Flight info
| Callsign | AMX659 |
|---|---|
| Flight time | 3h 2m |
| Altitude | 36000 |
| Route | SEDEM1B SEDEM UJ3 MZT UJ7 CEN DCT PILNA UT60 AXASA UT41 ASUTA DCT AMMOR OLAAA2 |
| Aircraft | B38M/M-SDE1FGHILORVWXY/HB1 |
Departure
| Time | 2026-05-04 16:02 |
|---|---|
| Airport | Guadalajara International Airport (MMGL) |
Arrival
| Time | 2026-05-04 19:05 |
|---|---|
| Airport | Los Angeles International Airport (KLAX) |
| Time | Latitude | Longitude | Altitude | Speed | Heading |
|---|---|---|---|---|---|
| 2026-05-04 15:37 | 20.52428 | -103.30072 | 5028 ft | 0 kts | 19° |
| 2026-05-04 15:51 | 20.52425 | -103.30073 | 5030 ft | 2 kts | 19° |
| 2026-05-04 15:51 | 20.52408 | -103.30079 | 5023 ft | 3 kts | 19° |
| 2026-05-04 15:52 | 20.52389 | -103.30086 | 5028 ft | 3 kts | 23° |
| 2026-05-04 15:52 | 20.52378 | -103.30095 | 5031 ft | 3 kts | 78° |
| 2026-05-04 15:52 | 20.52379 | -103.30110 | 5031 ft | 1 kts | 109° |
| 2026-05-04 15:52 | 20.52383 | -103.30124 | 5025 ft | 3 kts | 109° |
| 2026-05-04 15:53 | 20.52388 | -103.30137 | 5026 ft | 0 kts | 109° |
| 2026-05-04 15:57 | 20.52381 | -103.30117 | 5031 ft | 5 kts | 109° |
| 2026-05-04 15:57 | 20.52369 | -103.30081 | 5031 ft | 6 kts | 110° |
| 2026-05-04 15:57 | 20.52354 | -103.30038 | 5031 ft | 7 kts | 111° |
| 2026-05-04 15:57 | 20.52340 | -103.30025 | 5030 ft | 2 kts | 161° |
| 2026-05-04 15:58 | 20.52295 | -103.30032 | 5025 ft | 10 kts | 199° |
| 2026-05-04 15:58 | 20.52226 | -103.30057 | 5031 ft | 11 kts | 200° |
| 2026-05-04 15:58 | 20.52170 | -103.30037 | 5031 ft | 7 kts | 111° |
| 2026-05-04 15:58 | 20.52152 | -103.29994 | 5030 ft | 7 kts | 113° |
| 2026-05-04 15:59 | 20.52127 | -103.29932 | 5025 ft | 11 kts | 114° |
| 2026-05-04 15:59 | 20.52083 | -103.29830 | 5029 ft | 19 kts | 114° |
| 2026-05-04 15:59 | 20.52021 | -103.29684 | 5027 ft | 23 kts | 114° |
| 2026-05-04 15:59 | 20.51983 | -103.29593 | 5032 ft | 11 kts | 114° |
| 2026-05-04 16:00 | 20.51960 | -103.29547 | 5032 ft | 8 kts | 128° |
| 2026-05-04 16:00 | 20.51930 | -103.29530 | 5032 ft | 1 kts | 190° |
| 2026-05-04 16:00 | 20.51919 | -103.29536 | 5032 ft | 6 kts | 203° |
| 2026-05-04 16:00 | 20.51867 | -103.29560 | 5033 ft | 9 kts | 204° |
| 2026-05-04 16:01 | 20.51820 | -103.29585 | 5033 ft | 1 kts | 234° |
| 2026-05-04 16:01 | 20.51818 | -103.29591 | 5030 ft | 3 kts | 258° |
| 2026-05-04 16:01 | 20.51832 | -103.29640 | 5031 ft | 10 kts | 295° |
| 2026-05-04 16:01 | 20.51909 | -103.29826 | 5031 ft | 61 kts | 294° |
| 2026-05-04 16:02 | 20.52178 | -103.30470 | 5029 ft | 127 kts | 294° |
| 2026-05-04 16:02 | 20.52609 | -103.31516 | 5038 ft | 179 kts | 291° |
| 2026-05-04 16:02 | 20.53724 | -103.34258 | 6039 ft | 223 kts | 292° |
| 2026-05-04 16:03 | 20.54359 | -103.35860 | 6516 ft | 247 kts | 293° |
| 2026-05-04 16:03 | 20.55068 | -103.37602 | 7196 ft | 258 kts | 292° |
| 2026-05-04 16:03 | 20.55737 | -103.39345 | 8371 ft | 249 kts | 292° |
| 2026-05-04 16:03 | 20.56406 | -103.41034 | 9467 ft | 247 kts | 293° |
| 2026-05-04 16:04 | 20.57105 | -103.42759 | 10347 ft | 252 kts | 293° |
| 2026-05-04 16:04 | 20.58539 | -103.46235 | 11945 ft | 261 kts | 293° |
| 2026-05-04 16:04 | 20.59509 | -103.47931 | 12458 ft | 279 kts | 311° |
| 2026-05-04 16:05 | 20.61078 | -103.49259 | 12853 ft | 300 kts | 329° |
| 2026-05-04 16:05 | 20.62915 | -103.50398 | 13225 ft | 318 kts | 321° |
| 2026-05-04 16:05 | 20.66329 | -103.53659 | 14318 ft | 337 kts | 317° |
| 2026-05-04 16:06 | 20.68111 | -103.55340 | 15056 ft | 339 kts | 319° |
| 2026-05-04 16:06 | 20.72912 | -103.59827 | 16788 ft | 349 kts | 320° |
| 2026-05-04 16:07 | 20.75349 | -103.62102 | 17641 ft | 353 kts | 320° |
| 2026-05-04 16:07 | 20.80977 | -103.67358 | 19397 ft | 362 kts | 320° |
| 2026-05-04 16:08 | 20.82880 | -103.69136 | 19944 ft | 365 kts | 320° |
| 2026-05-04 16:08 | 20.88685 | -103.74563 | 21551 ft | 373 kts | 320° |
| 2026-05-04 16:09 | 20.92626 | -103.78250 | 22593 ft | 379 kts | 320° |
| 2026-05-04 16:09 | 20.96628 | -103.81997 | 23597 ft | 385 kts | 319° |
| 2026-05-04 16:10 | 21.00686 | -103.85801 | 24438 ft | 390 kts | 319° |
| 2026-05-04 16:11 | 21.06870 | -103.91600 | 25684 ft | 397 kts | 319° |
| 2026-05-04 16:11 | 21.08951 | -103.93554 | 26101 ft | 400 kts | 319° |
| 2026-05-04 16:12 | 21.14890 | -103.99923 | 27293 ft | 406 kts | 314° |
| 2026-05-04 16:12 | 21.20865 | -104.06461 | 28471 ft | 413 kts | 314° |
| 2026-05-04 16:13 | 21.24880 | -104.10907 | 29220 ft | 417 kts | 313° |
| 2026-05-04 16:13 | 21.28928 | -104.15398 | 29969 ft | 421 kts | 313° |
| 2026-05-04 16:14 | 21.33054 | -104.19977 | 30612 ft | 425 kts | 313° |
| 2026-05-04 16:14 | 21.37154 | -104.24527 | 31213 ft | 429 kts | 313° |
| 2026-05-04 16:15 | 21.43433 | -104.31504 | 32104 ft | 434 kts | 313° |
| 2026-05-04 16:16 | 21.47651 | -104.36194 | 32681 ft | 438 kts | 313° |
| 2026-05-04 16:16 | 21.54032 | -104.43299 | 33520 ft | 442 kts | 313° |
| 2026-05-04 16:17 | 21.58285 | -104.48040 | 34260 ft | 440 kts | 313° |
| 2026-05-04 16:18 | 21.64624 | -104.55114 | 35310 ft | 435 kts | 313° |
| 2026-05-04 16:18 | 21.66716 | -104.57451 | 35645 ft | 433 kts | 313° |
| 2026-05-04 16:19 | 21.72948 | -104.64418 | 36034 ft | 427 kts | 312° |
| 2026-05-04 16:19 | 21.77053 | -104.69012 | 36025 ft | 426 kts | 312° |
| 2026-05-04 16:20 | 21.87301 | -104.80497 | 36024 ft | 424 kts | 312° |
| 2026-05-04 16:22 | 21.97506 | -104.91965 | 36016 ft | 424 kts | 312° |
| 2026-05-04 16:23 | 22.09717 | -105.05720 | 36010 ft | 423 kts | 312° |
| 2026-05-04 16:25 | 22.21891 | -105.19469 | 36004 ft | 422 kts | 312° |
| 2026-05-04 16:26 | 22.36034 | -105.35488 | 36000 ft | 420 kts | 312° |
| 2026-05-04 16:28 | 22.46092 | -105.46913 | 35988 ft | 419 kts | 312° |
| 2026-05-04 16:29 | 22.60114 | -105.62881 | 35984 ft | 417 kts | 312° |
| 2026-05-04 16:31 | 22.70085 | -105.74268 | 35987 ft | 416 kts | 312° |
| 2026-05-04 16:32 | 22.81995 | -105.87902 | 35996 ft | 414 kts | 312° |
| 2026-05-04 16:33 | 22.89656 | -105.96691 | 35999 ft | 413 kts | 311° |
| 2026-05-04 16:34 | 22.95576 | -106.03495 | 36009 ft | 413 kts | 311° |
| 2026-05-04 16:35 | 23.07374 | -106.17080 | 36024 ft | 412 kts | 311° |
| 2026-05-04 16:36 | 23.13258 | -106.23867 | 36027 ft | 411 kts | 311° |
| 2026-05-04 16:37 | 23.16663 | -106.27508 | 36014 ft | 412 kts | 322° |
| 2026-05-04 16:37 | 23.19045 | -106.29259 | 36027 ft | 413 kts | 322° |
| 2026-05-04 16:38 | 23.28516 | -106.36337 | 36021 ft | 413 kts | 322° |
| 2026-05-04 16:39 | 23.40351 | -106.45132 | 36017 ft | 411 kts | 322° |
| 2026-05-04 16:40 | 23.49795 | -106.52164 | 36013 ft | 410 kts | 322° |
| 2026-05-04 16:41 | 23.61569 | -106.60949 | 36015 ft | 410 kts | 322° |
| 2026-05-04 16:43 | 23.73303 | -106.69727 | 36013 ft | 409 kts | 322° |
| 2026-05-04 16:43 | 23.80329 | -106.74993 | 36012 ft | 408 kts | 322° |
| 2026-05-04 16:45 | 23.94354 | -106.85524 | 36017 ft | 407 kts | 322° |
| 2026-05-04 16:46 | 24.06011 | -106.94293 | 36015 ft | 406 kts | 322° |
| 2026-05-04 16:47 | 24.15315 | -107.01307 | 36013 ft | 406 kts | 321° |
| 2026-05-04 16:48 | 24.24610 | -107.08325 | 36011 ft | 405 kts | 321° |
| 2026-05-04 16:49 | 24.33886 | -107.15343 | 36014 ft | 405 kts | 321° |
| 2026-05-04 16:50 | 24.43128 | -107.22349 | 36006 ft | 404 kts | 321° |
| 2026-05-04 16:51 | 24.50070 | -107.27624 | 36012 ft | 404 kts | 321° |
| 2026-05-04 16:52 | 24.59306 | -107.34653 | 36028 ft | 404 kts | 321° |
| 2026-05-04 16:53 | 24.66250 | -107.39947 | 36039 ft | 403 kts | 321° |
| 2026-05-04 16:54 | 24.75453 | -107.46974 | 36040 ft | 402 kts | 320° |
| 2026-05-04 16:55 | 24.88534 | -107.58356 | 36039 ft | 399 kts | 317° |
| 2026-05-04 16:56 | 24.99394 | -107.67816 | 36022 ft | 397 kts | 317° |
| 2026-05-04 16:57 | 25.05893 | -107.73487 | 36013 ft | 397 kts | 317° |
| 2026-05-04 16:58 | 25.14535 | -107.81058 | 36019 ft | 396 kts | 317° |
| 2026-05-04 17:00 | 25.27476 | -107.92428 | 36023 ft | 396 kts | 317° |
| 2026-05-04 17:01 | 25.38235 | -108.01910 | 36014 ft | 395 kts | 317° |
| 2026-05-04 17:02 | 25.46808 | -108.09485 | 36021 ft | 394 kts | 316° |
| 2026-05-04 17:03 | 25.53227 | -108.15163 | 36017 ft | 394 kts | 316° |
| 2026-05-04 17:03 | 25.59631 | -108.20841 | 36018 ft | 392 kts | 316° |
| 2026-05-04 17:04 | 25.68164 | -108.28417 | 36015 ft | 393 kts | 316° |
| 2026-05-04 17:05 | 25.76710 | -108.36020 | 36016 ft | 394 kts | 316° |
| 2026-05-04 17:06 | 25.83123 | -108.41735 | 36017 ft | 394 kts | 316° |
| 2026-05-04 17:07 | 25.88816 | -108.46815 | 36018 ft | 394 kts | 316° |
| 2026-05-04 17:07 | 25.93819 | -108.51285 | 36020 ft | 395 kts | 316° |
| 2026-05-04 17:08 | 26.00244 | -108.57032 | 36023 ft | 396 kts | 316° |
| 2026-05-04 17:09 | 26.04526 | -108.60867 | 36024 ft | 395 kts | 316° |
| 2026-05-04 17:09 | 26.08819 | -108.64714 | 36025 ft | 396 kts | 315° |
| 2026-05-04 17:10 | 26.19543 | -108.74346 | 36023 ft | 396 kts | 315° |
| 2026-05-04 17:11 | 26.23829 | -108.78204 | 36018 ft | 396 kts | 315° |
| 2026-05-04 17:12 | 26.30265 | -108.84001 | 36015 ft | 396 kts | 315° |
| 2026-05-04 17:13 | 26.40264 | -108.93025 | 36017 ft | 396 kts | 315° |
| 2026-05-04 17:14 | 26.48845 | -109.00786 | 36020 ft | 397 kts | 315° |
| 2026-05-04 17:15 | 26.55273 | -109.06609 | 36025 ft | 396 kts | 315° |
| 2026-05-04 17:16 | 26.63831 | -109.14375 | 36022 ft | 396 kts | 314° |
| 2026-05-04 17:17 | 26.72376 | -109.22146 | 36022 ft | 396 kts | 314° |
| 2026-05-04 17:17 | 26.78865 | -109.28057 | 36029 ft | 408 kts | 314° |
| 2026-05-04 17:18 | 26.81107 | -109.30103 | 36021 ft | 413 kts | 314° |
| 2026-05-04 17:19 | 26.90042 | -109.38260 | 36023 ft | 416 kts | 314° |
| 2026-05-04 17:20 | 26.99031 | -109.46484 | 36018 ft | 416 kts | 314° |
| 2026-05-04 17:20 | 27.05716 | -109.52616 | 36020 ft | 416 kts | 314° |
| 2026-05-04 17:21 | 27.14692 | -109.60863 | 36023 ft | 415 kts | 314° |
| 2026-05-04 17:22 | 27.19128 | -109.64947 | 36028 ft | 415 kts | 314° |
| 2026-05-04 17:23 | 27.28082 | -109.73200 | 36043 ft | 415 kts | 313° |
| 2026-05-04 17:24 | 27.34775 | -109.79381 | 36046 ft | 415 kts | 313° |
| 2026-05-04 17:25 | 27.43643 | -109.87667 | 36046 ft | 414 kts | 313° |
| 2026-05-04 17:26 | 27.52469 | -109.95988 | 36037 ft | 414 kts | 313° |
| 2026-05-04 17:27 | 27.63453 | -110.06368 | 36015 ft | 413 kts | 312° |
| 2026-05-04 17:28 | 27.72274 | -110.14724 | 35998 ft | 412 kts | 312° |
| 2026-05-04 17:29 | 27.85425 | -110.27216 | 36020 ft | 412 kts | 312° |
| 2026-05-04 17:31 | 27.96339 | -110.37614 | 35994 ft | 410 kts | 311° |
| 2026-05-04 17:32 | 28.07239 | -110.48027 | 35993 ft | 410 kts | 311° |
| 2026-05-04 17:33 | 28.15949 | -110.56369 | 35992 ft | 409 kts | 311° |
| 2026-05-04 17:34 | 28.24637 | -110.64708 | 35991 ft | 409 kts | 311° |
| 2026-05-04 17:35 | 28.35478 | -110.75139 | 35977 ft | 408 kts | 311° |
| 2026-05-04 17:36 | 28.39805 | -110.79312 | 35983 ft | 408 kts | 311° |
| 2026-05-04 17:36 | 28.44129 | -110.83485 | 35990 ft | 408 kts | 311° |
| 2026-05-04 17:37 | 28.48454 | -110.87665 | 35992 ft | 408 kts | 311° |
| 2026-05-04 17:37 | 28.52779 | -110.91846 | 35986 ft | 407 kts | 310° |
| 2026-05-04 17:38 | 28.57093 | -110.96024 | 35984 ft | 408 kts | 310° |
| 2026-05-04 17:38 | 28.61418 | -111.00218 | 35990 ft | 408 kts | 310° |
| 2026-05-04 17:39 | 28.67879 | -111.06491 | 35987 ft | 407 kts | 310° |
| 2026-05-04 17:39 | 28.72187 | -111.10679 | 35989 ft | 407 kts | 310° |
| 2026-05-04 17:40 | 28.76438 | -111.14817 | 35988 ft | 407 kts | 310° |
| 2026-05-04 17:40 | 28.80747 | -111.19015 | 35998 ft | 407 kts | 310° |
| 2026-05-04 17:41 | 28.85048 | -111.23210 | 36003 ft | 407 kts | 310° |
| 2026-05-04 17:41 | 28.89350 | -111.27413 | 36007 ft | 407 kts | 310° |
| 2026-05-04 17:42 | 28.93653 | -111.31619 | 36005 ft | 407 kts | 310° |
| 2026-05-04 17:42 | 28.97953 | -111.35828 | 36006 ft | 407 kts | 309° |
| 2026-05-04 17:43 | 29.02256 | -111.40044 | 35999 ft | 407 kts | 309° |
| 2026-05-04 17:43 | 29.06555 | -111.44262 | 35991 ft | 407 kts | 309° |
| 2026-05-04 17:44 | 29.10853 | -111.48483 | 35990 ft | 407 kts | 309° |
| 2026-05-04 17:44 | 29.15150 | -111.52708 | 35986 ft | 407 kts | 309° |
| 2026-05-04 17:45 | 29.19424 | -111.56915 | 35999 ft | 408 kts | 309° |
| 2026-05-04 17:45 | 29.23750 | -111.61178 | 35985 ft | 408 kts | 309° |
| 2026-05-04 17:46 | 29.28043 | -111.65415 | 35986 ft | 408 kts | 309° |
| 2026-05-04 17:46 | 29.32339 | -111.69658 | 35992 ft | 408 kts | 309° |
| 2026-05-04 17:47 | 29.36630 | -111.73902 | 35991 ft | 408 kts | 309° |
| 2026-05-04 17:47 | 29.40931 | -111.78160 | 35991 ft | 408 kts | 309° |
| 2026-05-04 17:48 | 29.45231 | -111.82421 | 35989 ft | 408 kts | 309° |
| 2026-05-04 17:48 | 29.49522 | -111.86680 | 35992 ft | 408 kts | 308° |
| 2026-05-04 17:49 | 29.53822 | -111.90952 | 35992 ft | 409 kts | 308° |
| 2026-05-04 17:49 | 29.58118 | -111.95226 | 35990 ft | 409 kts | 308° |
| 2026-05-04 17:50 | 29.62415 | -111.99505 | 35989 ft | 409 kts | 308° |
| 2026-05-04 17:50 | 29.66014 | -112.03093 | 35988 ft | 409 kts | 308° |
| 2026-05-04 17:51 | 29.70309 | -112.07379 | 35991 ft | 409 kts | 308° |
| 2026-05-04 17:51 | 29.74598 | -112.11665 | 35992 ft | 409 kts | 308° |
| 2026-05-04 17:52 | 29.78887 | -112.15955 | 35985 ft | 408 kts | 308° |
| 2026-05-04 17:52 | 29.83171 | -112.20247 | 35988 ft | 408 kts | 308° |
| 2026-05-04 17:53 | 29.87457 | -112.24544 | 35992 ft | 408 kts | 308° |
| 2026-05-04 17:53 | 29.91736 | -112.28840 | 35992 ft | 408 kts | 308° |
| 2026-05-04 17:54 | 29.96010 | -112.33136 | 35991 ft | 407 kts | 308° |
| 2026-05-04 17:54 | 30.00276 | -112.37428 | 35995 ft | 407 kts | 307° |
| 2026-05-04 17:55 | 30.04545 | -112.41730 | 35991 ft | 407 kts | 307° |
| 2026-05-04 17:55 | 30.08808 | -112.46030 | 35986 ft | 406 kts | 307° |
| 2026-05-04 17:56 | 30.13070 | -112.50334 | 35994 ft | 407 kts | 307° |
| 2026-05-04 17:56 | 30.17321 | -112.54633 | 35990 ft | 406 kts | 307° |
| 2026-05-04 17:57 | 30.21571 | -112.58934 | 35987 ft | 406 kts | 307° |
| 2026-05-04 17:57 | 30.25818 | -112.63239 | 35987 ft | 406 kts | 307° |
| 2026-05-04 17:58 | 30.30063 | -112.67546 | 35986 ft | 406 kts | 307° |
| 2026-05-04 17:58 | 30.34304 | -112.71855 | 35988 ft | 406 kts | 307° |
| 2026-05-04 17:59 | 30.38544 | -112.76168 | 35989 ft | 406 kts | 307° |
| 2026-05-04 18:00 | 30.44900 | -112.82643 | 35997 ft | 406 kts | 307° |
| 2026-05-04 18:00 | 30.49140 | -112.86969 | 35988 ft | 406 kts | 307° |
| 2026-05-04 18:01 | 30.53377 | -112.91297 | 35983 ft | 406 kts | 307° |
| 2026-05-04 18:01 | 30.57613 | -112.95630 | 35979 ft | 406 kts | 307° |
| 2026-05-04 18:02 | 30.63970 | -113.02141 | 35975 ft | 406 kts | 306° |
| 2026-05-04 18:02 | 30.68208 | -113.06488 | 35983 ft | 406 kts | 306° |
| 2026-05-04 18:03 | 30.72444 | -113.10838 | 35975 ft | 406 kts | 306° |
| 2026-05-04 18:03 | 30.76700 | -113.15215 | 35978 ft | 406 kts | 306° |
| 2026-05-04 18:04 | 30.80931 | -113.19571 | 35980 ft | 406 kts | 306° |
| 2026-05-04 18:05 | 30.87272 | -113.26110 | 35972 ft | 406 kts | 306° |
| 2026-05-04 18:05 | 30.91493 | -113.30469 | 35970 ft | 406 kts | 306° |
| 2026-05-04 18:06 | 30.97818 | -113.37011 | 35970 ft | 405 kts | 306° |
| 2026-05-04 18:06 | 31.02031 | -113.41376 | 35970 ft | 405 kts | 306° |
| 2026-05-04 18:07 | 31.06240 | -113.45741 | 35974 ft | 405 kts | 306° |
| 2026-05-04 18:07 | 31.10444 | -113.50107 | 35978 ft | 405 kts | 306° |
| 2026-05-04 18:08 | 31.14650 | -113.54481 | 35977 ft | 405 kts | 306° |
| 2026-05-04 18:08 | 31.18850 | -113.58853 | 35980 ft | 405 kts | 306° |
| 2026-05-04 18:09 | 31.27255 | -113.67617 | 35978 ft | 405 kts | 306° |
| 2026-05-04 18:10 | 31.31454 | -113.72004 | 35975 ft | 405 kts | 306° |
| 2026-05-04 18:10 | 31.35655 | -113.76397 | 35979 ft | 405 kts | 306° |
| 2026-05-04 18:11 | 31.39854 | -113.80794 | 35980 ft | 405 kts | 305° |
| 2026-05-04 18:11 | 31.44058 | -113.85202 | 35966 ft | 405 kts | 305° |
| 2026-05-04 18:12 | 31.48257 | -113.89610 | 35967 ft | 405 kts | 305° |
| 2026-05-04 18:12 | 31.52452 | -113.94019 | 35963 ft | 405 kts | 305° |
| 2026-05-04 18:13 | 31.56649 | -113.98436 | 35962 ft | 405 kts | 305° |
| 2026-05-04 18:14 | 31.62660 | -114.05271 | 35953 ft | 392 kts | 297° |
| 2026-05-04 18:14 | 31.66171 | -114.10185 | 35950 ft | 393 kts | 297° |
| 2026-05-04 18:15 | 31.73170 | -114.20027 | 35940 ft | 392 kts | 297° |
| 2026-05-04 18:16 | 31.76660 | -114.24948 | 35942 ft | 392 kts | 297° |
| 2026-05-04 18:16 | 31.80153 | -114.29878 | 35944 ft | 392 kts | 297° |
| 2026-05-04 18:17 | 31.85381 | -114.37270 | 35946 ft | 392 kts | 297° |
| 2026-05-04 18:18 | 31.90607 | -114.44673 | 35952 ft | 392 kts | 297° |
| 2026-05-04 18:18 | 31.94084 | -114.49605 | 35952 ft | 392 kts | 297° |
| 2026-05-04 18:19 | 31.99297 | -114.57015 | 35957 ft | 392 kts | 296° |
| 2026-05-04 18:19 | 32.02771 | -114.61961 | 35959 ft | 391 kts | 296° |
| 2026-05-04 18:20 | 32.06240 | -114.66902 | 35967 ft | 391 kts | 296° |
| 2026-05-04 18:20 | 32.09707 | -114.71854 | 35954 ft | 391 kts | 296° |
| 2026-05-04 18:21 | 32.13173 | -114.76808 | 35961 ft | 391 kts | 296° |
| 2026-05-04 18:21 | 32.16635 | -114.81761 | 35956 ft | 391 kts | 296° |
| 2026-05-04 18:22 | 32.20097 | -114.86722 | 35967 ft | 391 kts | 296° |
| 2026-05-04 18:22 | 32.23551 | -114.91678 | 35969 ft | 391 kts | 296° |
| 2026-05-04 18:23 | 32.27008 | -114.96643 | 35969 ft | 391 kts | 296° |
| 2026-05-04 18:23 | 32.30463 | -115.01613 | 35969 ft | 391 kts | 296° |
| 2026-05-04 18:24 | 32.33859 | -115.06614 | 35967 ft | 382 kts | 290° |
| 2026-05-04 18:24 | 32.36723 | -115.11881 | 35980 ft | 380 kts | 289° |
| 2026-05-04 18:25 | 32.39564 | -115.17154 | 35985 ft | 380 kts | 289° |
| 2026-05-04 18:25 | 32.42398 | -115.22436 | 35991 ft | 380 kts | 289° |
| 2026-05-04 18:26 | 32.44752 | -115.26828 | 35993 ft | 380 kts | 289° |
| 2026-05-04 18:26 | 32.47580 | -115.32114 | 35997 ft | 380 kts | 289° |
| 2026-05-04 18:27 | 32.50408 | -115.37406 | 35998 ft | 380 kts | 289° |
| 2026-05-04 18:27 | 32.53230 | -115.42695 | 35979 ft | 380 kts | 288° |
| 2026-05-04 18:28 | 32.56055 | -115.47997 | 35991 ft | 380 kts | 288° |
| 2026-05-04 18:28 | 32.58876 | -115.53298 | 35993 ft | 380 kts | 288° |
| 2026-05-04 18:29 | 32.61694 | -115.58603 | 35999 ft | 380 kts | 288° |
| 2026-05-04 18:29 | 32.64511 | -115.63910 | 36017 ft | 380 kts | 288° |
| 2026-05-04 18:30 | 32.68722 | -115.71876 | 36022 ft | 380 kts | 288° |
| 2026-05-04 18:31 | 32.71533 | -115.77201 | 35699 ft | 379 kts | 288° |
| 2026-05-04 18:31 | 32.72930 | -115.79852 | 35320 ft | 379 kts | 288° |
| 2026-05-04 18:31 | 32.74329 | -115.82508 | 34940 ft | 380 kts | 288° |
| 2026-05-04 18:31 | 32.75731 | -115.85169 | 34576 ft | 382 kts | 288° |
| 2026-05-04 18:32 | 32.77142 | -115.87852 | 34205 ft | 383 kts | 288° |
| 2026-05-04 18:32 | 32.78556 | -115.90542 | 33807 ft | 384 kts | 288° |
| 2026-05-04 18:32 | 32.79975 | -115.93244 | 33372 ft | 386 kts | 287° |
| 2026-05-04 18:32 | 32.81351 | -115.95982 | 32965 ft | 387 kts | 287° |
| 2026-05-04 18:33 | 32.82732 | -115.98740 | 32550 ft | 390 kts | 287° |
| 2026-05-04 18:33 | 32.84127 | -116.01522 | 32148 ft | 395 kts | 288° |
| 2026-05-04 18:33 | 32.85540 | -116.04339 | 31742 ft | 397 kts | 288° |
| 2026-05-04 18:33 | 32.86963 | -116.07174 | 31330 ft | 400 kts | 288° |
| 2026-05-04 18:34 | 32.88394 | -116.10030 | 30932 ft | 404 kts | 288° |
| 2026-05-04 18:34 | 32.89840 | -116.12917 | 30527 ft | 408 kts | 289° |
| 2026-05-04 18:34 | 32.91295 | -116.15826 | 30121 ft | 411 kts | 289° |
| 2026-05-04 18:34 | 32.92763 | -116.18763 | 29658 ft | 414 kts | 289° |
| 2026-05-04 18:35 | 32.94241 | -116.21721 | 29188 ft | 416 kts | 289° |
| 2026-05-04 18:35 | 32.95721 | -116.24687 | 28741 ft | 418 kts | 290° |
| 2026-05-04 18:35 | 32.97208 | -116.27669 | 28296 ft | 419 kts | 290° |
| 2026-05-04 18:35 | 32.98699 | -116.30662 | 27853 ft | 421 kts | 290° |
| 2026-05-04 18:36 | 33.00196 | -116.33669 | 27424 ft | 422 kts | 290° |
| 2026-05-04 18:36 | 33.01696 | -116.36682 | 27001 ft | 422 kts | 290° |
| 2026-05-04 18:36 | 33.03178 | -116.39661 | 26588 ft | 413 kts | 290° |
| 2026-05-04 18:36 | 33.04611 | -116.42579 | 26233 ft | 399 kts | 287° |
| 2026-05-04 18:37 | 33.05699 | -116.45486 | 26188 ft | 377 kts | 283° |
| 2026-05-04 18:37 | 33.06766 | -116.48397 | 26052 ft | 388 kts | 284° |
| 2026-05-04 18:37 | 33.07871 | -116.51357 | 26049 ft | 394 kts | 284° |
| 2026-05-04 18:37 | 33.09004 | -116.54358 | 26038 ft | 400 kts | 284° |
| 2026-05-04 18:38 | 33.10156 | -116.57396 | 26030 ft | 403 kts | 284° |
| 2026-05-04 18:38 | 33.11310 | -116.60436 | 26087 ft | 402 kts | 284° |
| 2026-05-04 18:38 | 33.12462 | -116.63471 | 26061 ft | 401 kts | 284° |
| 2026-05-04 18:38 | 33.13460 | -116.66539 | 26056 ft | 387 kts | 273° |
| 2026-05-04 18:39 | 33.13883 | -116.69671 | 25925 ft | 383 kts | 271° |
| 2026-05-04 18:39 | 33.14349 | -116.72792 | 25567 ft | 381 kts | 271° |
| 2026-05-04 18:39 | 33.14810 | -116.75901 | 25112 ft | 381 kts | 272° |
| 2026-05-04 18:39 | 33.15268 | -116.79018 | 24685 ft | 382 kts | 272° |
| 2026-05-04 18:40 | 33.15726 | -116.82141 | 24262 ft | 383 kts | 272° |
| 2026-05-04 18:40 | 33.16184 | -116.85265 | 23823 ft | 382 kts | 272° |
| 2026-05-04 18:40 | 33.16639 | -116.88383 | 23322 ft | 380 kts | 272° |
| 2026-05-04 18:40 | 33.17092 | -116.91492 | 22752 ft | 382 kts | 273° |
| 2026-05-04 18:41 | 33.17548 | -116.94628 | 22173 ft | 384 kts | 273° |
| 2026-05-04 18:41 | 33.18006 | -116.97777 | 21615 ft | 386 kts | 273° |
| 2026-05-04 18:41 | 33.18465 | -117.00946 | 21054 ft | 388 kts | 274° |
| 2026-05-04 18:41 | 33.18925 | -117.04129 | 20497 ft | 391 kts | 274° |
| 2026-05-04 18:42 | 33.19389 | -117.07338 | 19966 ft | 390 kts | 274° |
| 2026-05-04 18:42 | 33.19845 | -117.10501 | 19447 ft | 382 kts | 274° |
| 2026-05-04 18:42 | 33.20282 | -117.13537 | 18968 ft | 361 kts | 274° |
| 2026-05-04 18:42 | 33.20696 | -117.16424 | 18486 ft | 345 kts | 274° |
| 2026-05-04 18:43 | 33.21099 | -117.19229 | 17937 ft | 332 kts | 274° |
| 2026-05-04 18:43 | 33.21481 | -117.21906 | 17374 ft | 321 kts | 274° |
| 2026-05-04 18:43 | 33.21847 | -117.24470 | 16820 ft | 316 kts | 274° |
| 2026-05-04 18:43 | 33.22215 | -117.27047 | 16266 ft | 315 kts | 275° |
| 2026-05-04 18:44 | 33.22583 | -117.29626 | 15730 ft | 314 kts | 275° |
| 2026-05-04 18:44 | 33.22831 | -117.31365 | 15372 ft | 314 kts | 275° |
| 2026-05-04 18:44 | 33.23373 | -117.34846 | 14623 ft | 322 kts | 276° |
| 2026-05-04 18:44 | 33.23788 | -117.37501 | 14093 ft | 326 kts | 276° |
| 2026-05-04 18:45 | 33.24196 | -117.40124 | 13638 ft | 325 kts | 276° |
| 2026-05-04 18:45 | 33.24606 | -117.42759 | 13293 ft | 320 kts | 277° |
| 2026-05-04 18:45 | 33.25010 | -117.45368 | 13059 ft | 311 kts | 277° |
| 2026-05-04 18:45 | 33.25393 | -117.47849 | 12827 ft | 304 kts | 277° |
| 2026-05-04 18:46 | 33.25777 | -117.50333 | 12594 ft | 296 kts | 277° |
| 2026-05-04 18:46 | 33.26170 | -117.52693 | 12367 ft | 292 kts | 283° |
| 2026-05-04 18:46 | 33.27105 | -117.54853 | 12126 ft | 294 kts | 299° |
| 2026-05-04 18:46 | 33.28226 | -117.56929 | 11896 ft | 293 kts | 298° |
| 2026-05-04 18:47 | 33.29307 | -117.58953 | 11697 ft | 292 kts | 298° |
| 2026-05-04 18:47 | 33.30418 | -117.61023 | 11539 ft | 292 kts | 298° |
| 2026-05-04 18:47 | 33.31516 | -117.63065 | 11377 ft | 292 kts | 298° |
| 2026-05-04 18:47 | 33.32612 | -117.65104 | 11230 ft | 291 kts | 299° |
| 2026-05-04 18:48 | 33.33704 | -117.67135 | 11042 ft | 290 kts | 299° |
| 2026-05-04 18:48 | 33.34795 | -117.69164 | 10893 ft | 290 kts | 299° |
| 2026-05-04 18:48 | 33.35871 | -117.71168 | 10736 ft | 288 kts | 299° |
| 2026-05-04 18:48 | 33.36937 | -117.73154 | 10580 ft | 272 kts | 299° |
| 2026-05-04 18:49 | 33.37935 | -117.75012 | 10435 ft | 267 kts | 299° |
| 2026-05-04 18:49 | 33.38934 | -117.76876 | 10282 ft | 265 kts | 299° |
| 2026-05-04 18:49 | 33.39941 | -117.78752 | 10122 ft | 264 kts | 300° |
| 2026-05-04 18:49 | 33.40933 | -117.80605 | 9972 ft | 264 kts | 300° |
| 2026-05-04 18:50 | 33.41921 | -117.82450 | 9785 ft | 263 kts | 300° |
| 2026-05-04 18:50 | 33.42905 | -117.84289 | 9621 ft | 262 kts | 300° |
| 2026-05-04 18:50 | 33.43886 | -117.86122 | 9445 ft | 262 kts | 300° |
| 2026-05-04 18:50 | 33.44866 | -117.87954 | 9282 ft | 261 kts | 300° |
| 2026-05-04 18:51 | 33.45845 | -117.89785 | 9126 ft | 260 kts | 300° |
| 2026-05-04 18:51 | 33.46820 | -117.91609 | 8949 ft | 260 kts | 301° |
| 2026-05-04 18:51 | 33.48063 | -117.93168 | 8784 ft | 263 kts | 325° |
| 2026-05-04 18:51 | 33.49744 | -117.94061 | 8638 ft | 266 kts | 335° |
| 2026-05-04 18:52 | 33.51474 | -117.94850 | 8473 ft | 266 kts | 336° |
| 2026-05-04 18:52 | 33.53206 | -117.95627 | 8302 ft | 265 kts | 336° |
| 2026-05-04 18:52 | 33.54936 | -117.96393 | 8149 ft | 264 kts | 336° |
| 2026-05-04 18:52 | 33.56660 | -117.97151 | 8024 ft | 263 kts | 336° |
| 2026-05-04 18:53 | 33.58378 | -117.97903 | 7995 ft | 262 kts | 336° |
| 2026-05-04 18:53 | 33.60071 | -117.98641 | 7901 ft | 257 kts | 336° |
| 2026-05-04 18:53 | 33.61744 | -117.99371 | 7671 ft | 254 kts | 336° |
| 2026-05-04 18:53 | 33.63423 | -118.00015 | 7452 ft | 253 kts | 340° |
| 2026-05-04 18:54 | 33.65106 | -118.00627 | 7234 ft | 252 kts | 340° |
| 2026-05-04 18:54 | 33.66769 | -118.01238 | 7023 ft | 249 kts | 340° |
| 2026-05-04 18:54 | 33.68422 | -118.01848 | 6831 ft | 250 kts | 340° |
| 2026-05-04 18:54 | 33.70093 | -118.02465 | 6555 ft | 253 kts | 340° |
| 2026-05-04 18:55 | 33.71771 | -118.03077 | 6329 ft | 249 kts | 340° |
| 2026-05-04 18:55 | 33.75039 | -118.04271 | 5866 ft | 242 kts | 340° |
| 2026-05-04 18:55 | 33.76640 | -118.04856 | 5620 ft | 239 kts | 340° |
| 2026-05-04 18:56 | 33.78208 | -118.05438 | 5412 ft | 233 kts | 338° |
| 2026-05-04 18:56 | 33.79682 | -118.06114 | 5183 ft | 222 kts | 338° |
| 2026-05-04 18:56 | 33.81137 | -118.06637 | 4935 ft | 214 kts | 340° |
| 2026-05-04 18:56 | 33.82546 | -118.07139 | 4686 ft | 210 kts | 340° |
| 2026-05-04 18:57 | 33.83944 | -118.07644 | 4437 ft | 210 kts | 340° |
| 2026-05-04 18:57 | 33.85327 | -118.08149 | 4183 ft | 205 kts | 340° |
| 2026-05-04 18:57 | 33.86669 | -118.08642 | 3998 ft | 200 kts | 340° |
| 2026-05-04 18:57 | 33.87995 | -118.09131 | 3783 ft | 199 kts | 340° |
| 2026-05-04 18:58 | 33.89319 | -118.09618 | 3576 ft | 197 kts | 339° |
| 2026-05-04 18:58 | 33.90602 | -118.10092 | 3342 ft | 190 kts | 339° |
| 2026-05-04 18:58 | 33.91858 | -118.10558 | 3163 ft | 189 kts | 339° |
| 2026-05-04 18:58 | 33.93036 | -118.11196 | 3033 ft | 183 kts | 322° |
| 2026-05-04 18:59 | 33.94058 | -118.12101 | 2928 ft | 183 kts | 319° |
| 2026-05-04 18:59 | 33.95060 | -118.13037 | 2835 ft | 181 kts | 314° |
| 2026-05-04 18:59 | 33.95647 | -118.14310 | 2706 ft | 174 kts | 279° |
| 2026-05-04 18:59 | 33.95794 | -118.15758 | 2681 ft | 174 kts | 272° |
| 2026-05-04 19:00 | 33.95801 | -118.17213 | 2674 ft | 174 kts | 266° |
| 2026-05-04 19:00 | 33.95714 | -118.18667 | 2658 ft | 170 kts | 264° |
| 2026-05-04 19:00 | 33.95587 | -118.20049 | 2617 ft | 165 kts | 263° |
| 2026-05-04 19:00 | 33.95450 | -118.21420 | 2601 ft | 163 kts | 262° |
| 2026-05-04 19:01 | 33.95312 | -118.22769 | 2565 ft | 163 kts | 262° |
| 2026-05-04 19:01 | 33.95176 | -118.24117 | 2453 ft | 158 kts | 262° |
| 2026-05-04 19:01 | 33.95052 | -118.25353 | 2248 ft | 143 kts | 261° |
| 2026-05-04 19:01 | 33.94933 | -118.26518 | 2077 ft | 138 kts | 262° |
| 2026-05-04 19:02 | 33.94816 | -118.27670 | 1891 ft | 139 kts | 261° |
| 2026-05-04 19:02 | 33.94699 | -118.28824 | 1697 ft | 138 kts | 262° |
| 2026-05-04 19:02 | 33.94584 | -118.29959 | 1515 ft | 136 kts | 261° |
| 2026-05-04 19:02 | 33.94505 | -118.30716 | 1398 ft | 138 kts | 262° |
| 2026-05-04 19:03 | 33.94351 | -118.32240 | 1127 ft | 136 kts | 262° |
| 2026-05-04 19:03 | 33.94237 | -118.33375 | 971 ft | 137 kts | 262° |
| 2026-05-04 19:03 | 33.94156 | -118.34146 | 819 ft | 137 kts | 261° |
| 2026-05-04 19:03 | 33.94047 | -118.35273 | 661 ft | 133 kts | 262° |
| 2026-05-04 19:04 | 33.93941 | -118.36364 | 508 ft | 134 kts | 263° |
| 2026-05-04 19:04 | 33.93824 | -118.37480 | 314 ft | 135 kts | 262° |
| 2026-05-04 19:04 | 33.93706 | -118.38593 | 145 ft | 131 kts | 261° |
| 2026-05-04 19:04 | 33.93608 | -118.39526 | 124 ft | 80 kts | 263° |
| 2026-05-04 19:05 | 33.93564 | -118.39964 | 124 ft | 39 kts | 263° |
| 2026-05-04 19:05 | 33.93576 | -118.40205 | 126 ft | 9 kts | 286° |
| 2026-05-04 19:05 | 33.93601 | -118.40290 | 127 ft | 12 kts | 294° |
| 2026-05-04 19:05 | 33.93620 | -118.40352 | 126 ft | 8 kts | 284° |
| 2026-05-04 19:06 | 33.93624 | -118.40381 | 127 ft | 0 kts | 280° |
| 2026-05-04 19:06 | 33.93627 | -118.40405 | 128 ft | 6 kts | 274° |
| 2026-05-04 19:06 | 33.93625 | -118.40471 | 128 ft | 9 kts | 263° |
| 2026-05-04 19:06 | 33.93615 | -118.40558 | 126 ft | 12 kts | 263° |
| 2026-05-04 19:07 | 33.93603 | -118.40671 | 128 ft | 15 kts | 263° |
| 2026-05-04 19:07 | 33.93595 | -118.40804 | 124 ft | 17 kts | 282° |
| 2026-05-04 19:07 | 33.93672 | -118.40904 | 125 ft | 16 kts | 357° |
| 2026-05-04 19:07 | 33.93748 | -118.40909 | 125 ft | 12 kts | 354° |
| 2026-05-04 19:08 | 33.93831 | -118.40919 | 126 ft | 12 kts | 353° |
| 2026-05-04 19:08 | 33.93864 | -118.40949 | 125 ft | 5 kts | 284° |
| 2026-05-04 19:08 | 33.93860 | -118.40998 | 128 ft | 7 kts | 262° |
| 2026-05-04 19:08 | 33.93848 | -118.41097 | 128 ft | 18 kts | 263° |
| 2026-05-04 19:09 | 33.93842 | -118.41239 | 128 ft | 11 kts | 291° |
| 2026-05-04 19:09 | 33.93892 | -118.41272 | 125 ft | 8 kts | 358° |
| 2026-05-04 19:09 | 33.93981 | -118.41280 | 127 ft | 19 kts | 352° |
| 2026-05-04 19:09 | 33.94084 | -118.41296 | 127 ft | 13 kts | 353° |
| 2026-05-04 19:10 | 33.94182 | -118.41310 | 124 ft | 16 kts | 354° |
| 2026-05-04 19:10 | 33.94289 | -118.41325 | 126 ft | 14 kts | 351° |
| 2026-05-04 19:10 | 33.94382 | -118.41340 | 127 ft | 7 kts | 354° |
| 2026-05-04 19:10 | 33.94426 | -118.41375 | 127 ft | 9 kts | 306° |
| 2026-05-04 19:11 | 33.94429 | -118.41385 | 127 ft | 0 kts | 275° |
| 2026-05-04 19:11 | 33.94358 | -118.41435 | 127 ft | 0 kts | 261° |